createdAt,value
2022-08-26T00:01:45.220Z,100.00
2022-08-26T00:04:12.702Z,100.00
2022-08-26T00:06:42.532Z,100.00
2022-08-26T00:09:16.124Z,100.00
2022-08-26T00:11:44.874Z,100.00
2022-08-26T00:14:14.032Z,100.00
2022-08-26T00:16:47.507Z,100.00
2022-08-26T00:19:15.741Z,100.00
2022-08-26T00:21:42.464Z,100.00
2022-08-26T00:24:09.275Z,100.00
2022-08-26T00:26:36.384Z,100.00
2022-08-26T00:29:03.827Z,100.00
2022-08-26T00:31:32.097Z,100.00
2022-08-26T00:33:59.577Z,100.00
2022-08-26T00:36:29.843Z,100.00
2022-08-26T00:38:57.905Z,100.00
2022-08-26T00:41:24.728Z,100.00
2022-08-26T00:43:53.270Z,100.00
2022-08-26T00:46:28.947Z,100.00
2022-08-26T00:49:03.704Z,100.00
2022-08-26T00:51:31.307Z,100.00
2022-08-26T00:54:04.101Z,100.00
2022-08-26T00:56:38.315Z,100.00
2022-08-26T00:59:09.894Z,100.00
2022-08-26T01:01:38.682Z,100.00
2022-08-26T01:04:06.032Z,100.00
2022-08-26T01:06:32.868Z,100.00
2022-08-26T01:09:00.196Z,100.00
2022-08-26T01:11:27.837Z,100.00
2022-08-26T01:13:57.923Z,100.00
2022-08-26T01:16:25.844Z,100.00
2022-08-26T01:18:56.686Z,100.00
2022-08-26T01:21:32.371Z,100.00
2022-08-26T01:24:00.193Z,100.00
2022-08-26T01:26:34.045Z,100.00
2022-08-26T01:29:04.973Z,100.00
2022-08-26T01:31:37.886Z,100.00
2022-08-26T01:34:26.354Z,100.00
2022-08-26T01:36:58.803Z,100.00
2022-08-26T01:39:25.800Z,100.00
2022-08-26T01:41:57.088Z,100.00
2022-08-26T01:44:28.283Z,100.00
2022-08-26T01:47:00.078Z,100.00
2022-08-26T01:49:28.038Z,100.00
2022-08-26T01:51:59.458Z,100.00
2022-08-26T01:54:26.954Z,100.00
2022-08-26T01:56:54.427Z,100.00
2022-08-26T01:59:24.175Z,100.00
2022-08-26T02:01:52.744Z,100.00
2022-08-26T02:04:33.350Z,100.00
2022-08-26T02:07:04.375Z,100.00
2022-08-26T02:09:31.795Z,100.00
2022-08-26T02:12:05.934Z,100.00
2022-08-26T02:14:43.776Z,100.00
2022-08-26T02:17:11.292Z,100.00
2022-08-26T02:19:42.065Z,100.00
2022-08-26T02:22:16.301Z,100.00
2022-08-26T02:24:51.960Z,100.00
2022-08-26T02:27:25.382Z,100.00
2022-08-26T02:30:04.125Z,100.00
2022-08-26T02:32:32.206Z,100.00
2022-08-26T02:34:58.975Z,100.00
2022-08-26T02:37:29.977Z,100.00
2022-08-26T02:39:56.954Z,100.00
2022-08-26T02:42:23.963Z,100.00
2022-08-26T02:44:52.025Z,100.00
2022-08-26T02:47:18.813Z,100.00
2022-08-26T02:49:47.437Z,100.00
2022-08-26T02:52:14.852Z,100.00
2022-08-26T02:54:41.748Z,100.00
2022-08-26T02:57:08.715Z,100.00
2022-08-26T02:59:36.254Z,100.00
2022-08-26T03:02:04.010Z,100.00
2022-08-26T03:04:33.323Z,100.00
2022-08-26T03:07:00.436Z,100.00
2022-08-26T03:09:27.429Z,100.00
2022-08-26T03:11:55.572Z,100.00
2022-08-26T03:14:24.091Z,100.00
2022-08-26T03:16:54.092Z,100.00
2022-08-26T03:19:23.963Z,100.00
2022-08-26T03:21:52.805Z,100.00
2022-08-26T03:24:25.933Z,100.00
2022-08-26T03:26:53.212Z,100.00
2022-08-26T03:29:39.656Z,100.00
2022-08-26T03:32:06.947Z,100.00
2022-08-26T03:34:33.926Z,100.00
2022-08-26T03:37:01.076Z,100.00
2022-08-26T03:39:28.010Z,100.00
2022-08-26T03:41:58.996Z,100.00
2022-08-26T03:44:26.665Z,100.00
2022-08-26T03:46:54.625Z,100.00
2022-08-26T03:49:22.017Z,100.00
2022-08-26T03:51:48.798Z,100.00
2022-08-26T03:54:16.998Z,100.00
2022-08-26T03:56:43.829Z,100.00
2022-08-26T03:59:13.883Z,100.00
2022-08-26T04:01:40.816Z,100.00
2022-08-26T04:04:07.703Z,100.00
2022-08-26T04:06:39.928Z,100.00
2022-08-26T04:09:10.499Z,100.00
2022-08-26T04:11:39.520Z,100.00
2022-08-26T04:14:10.234Z,100.00
2022-08-26T04:16:37.392Z,100.00
2022-08-26T04:19:06.706Z,100.00
2022-08-26T04:21:34.506Z,100.00
2022-08-26T04:24:03.569Z,100.00
2022-08-26T04:26:39.538Z,100.00
2022-08-26T04:29:16.467Z,100.00
2022-08-26T04:31:43.398Z,100.00
2022-08-26T04:34:11.284Z,100.00
2022-08-26T04:36:42.106Z,100.00
2022-08-26T04:39:12.300Z,100.00
2022-08-26T04:41:39.759Z,100.00
2022-08-26T04:44:07.914Z,100.00
2022-08-26T04:46:35.421Z,100.00
2022-08-26T04:49:08.496Z,100.00
2022-08-26T04:51:36.523Z,100.00
2022-08-26T04:54:06.976Z,100.00
2022-08-26T04:56:37.744Z,100.00
2022-08-26T04:59:08.268Z,100.00
2022-08-26T05:01:50.077Z,100.00
2022-08-26T05:04:19.274Z,100.00
2022-08-26T05:06:50.085Z,100.00
2022-08-26T05:09:18.762Z,100.00
2022-08-26T05:11:48.632Z,100.00
2022-08-26T05:14:20.049Z,100.00
2022-08-26T05:16:47.774Z,100.00
2022-08-26T05:19:17.248Z,100.00
2022-08-26T05:21:47.147Z,100.00
2022-08-26T05:24:14.348Z,100.00
2022-08-26T05:26:41.306Z,100.00
2022-08-26T05:29:08.170Z,100.00
2022-08-26T05:31:36.091Z,100.00
2022-08-26T05:34:04.787Z,100.00
2022-08-26T05:36:34.131Z,100.00
2022-08-26T05:39:03.502Z,100.00
2022-08-26T05:41:36.431Z,100.00
2022-08-26T05:44:07.329Z,100.00
2022-08-26T05:46:36.031Z,100.00
2022-08-26T05:49:04.600Z,100.00
2022-08-26T05:51:32.793Z,100.00
2022-08-26T05:54:05.734Z,100.00
2022-08-26T05:56:33.093Z,100.00
2022-08-26T05:59:02.404Z,100.00
2022-08-26T06:01:31.459Z,100.00
2022-08-26T06:04:03.794Z,100.00
2022-08-26T06:06:33.632Z,100.00
2022-08-26T06:09:04.024Z,100.00
2022-08-26T06:11:32.661Z,100.00
2022-08-26T06:14:04.232Z,100.00
2022-08-26T06:16:34.872Z,100.00
2022-08-26T06:19:03.643Z,100.00
2022-08-26T06:21:40.240Z,100.00
2022-08-26T06:24:30.385Z,100.00
2022-08-26T06:27:05.280Z,100.00
2022-08-26T06:29:34.307Z,100.00
2022-08-26T06:32:04.039Z,100.00
2022-08-26T06:34:31.066Z,100.00
2022-08-26T06:37:02.438Z,100.00
2022-08-26T06:39:30.851Z,100.00
2022-08-26T06:41:59.138Z,100.00
2022-08-26T06:44:26.951Z,100.00
2022-08-26T06:46:54.012Z,100.00
2022-08-26T06:49:26.887Z,100.00
2022-08-26T06:51:55.526Z,100.00
2022-08-26T06:54:22.483Z,100.00
2022-08-26T06:56:49.666Z,100.00
2022-08-26T06:59:16.533Z,100.00
2022-08-26T07:01:45.293Z,100.00
2022-08-26T07:04:15.660Z,100.00
2022-08-26T07:06:47.193Z,100.00
2022-08-26T07:09:14.259Z,100.00
2022-08-26T07:11:41.633Z,100.00
2022-08-26T07:14:09.153Z,100.00
2022-08-26T07:16:36.136Z,100.00
2022-08-26T07:19:11.067Z,100.00
2022-08-26T07:21:41.837Z,100.00
2022-08-26T07:24:11.022Z,100.00
2022-08-26T07:26:39.045Z,100.00
2022-08-26T07:29:12.621Z,100.00
2022-08-26T07:31:42.712Z,100.00
2022-08-26T07:34:11.031Z,100.00
2022-08-26T07:36:37.897Z,100.00
2022-08-26T07:39:05.604Z,99.42
2022-08-26T07:41:32.378Z,100.00
2022-08-26T07:43:59.499Z,97.81
2022-08-26T07:46:27.121Z,93.39
2022-08-26T07:48:57.923Z,95.03
2022-08-26T07:51:25.716Z,90.43
2022-08-26T07:53:53.658Z,90.25
2022-08-26T07:56:23.446Z,91.19
2022-08-26T07:58:58.253Z,88.36
2022-08-26T08:01:26.206Z,94.36
2022-08-26T08:03:54.346Z,85.99
2022-08-26T08:06:27.338Z,87.47
2022-08-26T08:08:54.918Z,83.39
2022-08-26T08:11:22.191Z,81.49
2022-08-26T08:13:56.596Z,83.80
2022-08-26T08:16:28.514Z,80.87
2022-08-26T08:18:59.246Z,87.67
2022-08-26T08:21:27.970Z,81.40
2022-08-26T08:23:57.243Z,79.54
2022-08-26T08:26:25.739Z,79.39
2022-08-26T08:28:57.123Z,78.70
2022-08-26T08:34:14.292Z,75.74
2022-08-26T08:36:41.058Z,75.14
2022-08-26T08:39:08.631Z,77.17
2022-08-26T08:41:55.906Z,73.86
2022-08-26T08:46:58.924Z,71.02
2022-08-26T08:49:29.225Z,69.05
2022-08-26T08:52:02.314Z,67.68
2022-08-26T08:54:32.243Z,68.69
2022-08-26T08:57:12.706Z,66.89
2022-08-26T08:59:53.849Z,63.45
2022-08-26T09:02:54.312Z,65.34
2022-08-26T09:05:25.704Z,67.72
2022-08-26T09:07:54.299Z,67.49
2022-08-26T09:10:24.817Z,64.05
2022-08-26T09:12:52.785Z,65.04
2022-08-26T09:15:28.582Z,63.52
2022-08-26T09:18:05.966Z,61.57
2022-08-26T09:20:56.165Z,60.57
2022-08-26T09:23:23.235Z,65.46
2022-08-26T09:26:00.150Z,63.82
2022-08-26T09:28:30.275Z,62.25
2022-08-26T09:31:11.460Z,59.67
2022-08-26T09:33:40.309Z,58.57
2022-08-26T09:36:22.361Z,55.58
2022-08-26T09:38:51.387Z,58.29
2022-08-26T09:41:33.268Z,58.87
2022-08-26T09:44:14.541Z,56.84
2022-08-26T09:47:06.655Z,57.93
2022-08-26T09:49:37.150Z,57.31
2022-08-26T09:52:14.894Z,57.07
2022-08-26T09:54:46.048Z,55.26
2022-08-26T09:57:27.797Z,56.26
2022-08-26T09:59:55.935Z,55.96
2022-08-26T10:02:32.125Z,55.04
2022-08-26T10:05:09.235Z,53.01
2022-08-26T10:07:41.533Z,50.92
2022-08-26T10:10:13.126Z,49.75
2022-08-26T10:12:49.576Z,49.08
2022-08-26T10:15:19.084Z,51.02
2022-08-26T10:18:20.723Z,49.82
2022-08-26T10:20:57.773Z,48.62
2022-08-26T10:23:27.661Z,50.64
2022-08-26T10:26:16.203Z,50.62
2022-08-26T10:28:51.206Z,47.54
2022-08-26T10:31:48.544Z,47.50
2022-08-26T10:34:21.220Z,52.02
2022-08-26T10:37:14.546Z,49.79
2022-08-26T10:39:58.672Z,48.77
2022-08-26T10:42:40.533Z,47.75
2022-08-26T10:45:15.324Z,48.07
2022-08-26T10:47:57.587Z,49.14
2022-08-26T10:50:30.844Z,48.53
2022-08-26T10:53:02.589Z,47.02
2022-08-26T10:55:40.945Z,47.30
2022-08-26T10:58:27.537Z,47.04
2022-08-26T11:01:43.404Z,42.95
2022-08-26T11:04:29.097Z,44.46
2022-08-26T11:07:33.060Z,46.28
2022-08-26T11:10:20.976Z,43.78
2022-08-26T11:13:03.866Z,44.07
2022-08-26T11:15:31.076Z,43.79
2022-08-26T11:18:01.259Z,42.88
2022-08-26T11:20:28.060Z,41.35
2022-08-26T11:22:56.465Z,39.88
2022-08-26T11:25:30.201Z,42.09
2022-08-26T11:28:07.238Z,38.09
2022-08-26T11:30:42.816Z,39.27
2022-08-26T11:33:11.863Z,39.61
2022-08-26T11:35:38.857Z,35.92
2022-08-26T11:38:18.597Z,36.38
2022-08-26T11:40:57.277Z,37.64
2022-08-26T11:43:29.837Z,39.41
2022-08-26T11:46:05.919Z,38.81
2022-08-26T11:48:37.284Z,38.23
2022-08-26T11:51:11.269Z,38.94
2022-08-26T11:53:41.214Z,38.53
2022-08-26T11:56:17.585Z,38.90
2022-08-26T11:58:47.043Z,37.87
2022-08-26T12:01:28.009Z,37.88
2022-08-26T12:03:59.959Z,37.62
2022-08-26T12:06:37.708Z,40.05
2022-08-26T12:09:20.463Z,38.74
2022-08-26T12:11:47.324Z,40.61
2022-08-26T12:14:24.411Z,38.52
2022-08-26T12:16:54.161Z,36.70
2022-08-26T12:19:27.726Z,39.44
2022-08-26T12:22:02.734Z,37.45
2022-08-26T12:24:30.203Z,37.13
2022-08-26T12:27:13.123Z,37.46
2022-08-26T12:29:40.088Z,37.85
2022-08-26T12:32:18.419Z,39.42
2022-08-26T12:34:49.164Z,37.78
2022-08-26T12:37:16.377Z,39.42
2022-08-26T12:39:46.104Z,37.81
2022-08-26T12:42:13.003Z,40.75
2022-08-26T12:44:53.854Z,40.99
2022-08-26T12:47:43.569Z,38.96
2022-08-26T12:50:19.394Z,40.50
2022-08-26T12:53:03.228Z,40.77
2022-08-26T12:55:33.135Z,39.47
2022-08-26T12:58:18.528Z,41.95
2022-08-26T13:01:04.854Z,40.32
2022-08-26T13:03:37.883Z,40.67
2022-08-26T13:06:22.882Z,40.77
2022-08-26T13:09:00.139Z,38.09
2022-08-26T13:11:31.814Z,39.84
2022-08-26T13:14:07.061Z,36.55
2022-08-26T13:16:35.450Z,36.81
2022-08-26T13:19:10.474Z,37.89
2022-08-26T13:21:48.014Z,37.53
2022-08-26T13:24:25.077Z,36.82
2022-08-26T13:26:52.142Z,35.07
2022-08-26T13:29:19.525Z,37.77
2022-08-26T13:31:48.054Z,35.20
2022-08-26T13:34:19.323Z,35.76
2022-08-26T13:36:50.986Z,34.15
2022-08-26T13:39:18.693Z,35.27
2022-08-26T13:41:46.340Z,34.39
2022-08-26T13:44:13.639Z,34.32
2022-08-26T13:46:40.847Z,35.06
2022-08-26T13:49:07.986Z,35.47
2022-08-26T13:51:35.307Z,34.70
2022-08-26T13:54:02.051Z,34.88
2022-08-26T13:56:30.046Z,33.00
2022-08-26T13:59:01.366Z,32.69
2022-08-26T14:01:30.957Z,33.43
2022-08-26T14:03:58.603Z,35.39
2022-08-26T14:06:25.732Z,35.47
2022-08-26T14:08:52.728Z,35.10
2022-08-26T14:11:19.745Z,33.38
2022-08-26T14:13:46.551Z,34.65
2022-08-26T14:16:23.731Z,33.17
2022-08-26T14:18:51.099Z,35.40
2022-08-26T14:21:18.653Z,33.09
2022-08-26T14:23:45.497Z,35.76
2022-08-26T14:26:28.769Z,35.11
2022-08-26T14:28:58.334Z,35.62
2022-08-26T14:31:27.218Z,34.89
2022-08-26T14:33:57.173Z,36.36
2022-08-26T14:36:32.494Z,35.01
2022-08-26T14:39:05.037Z,36.30
2022-08-26T14:41:33.664Z,33.72
2022-08-26T14:44:04.039Z,34.81
2022-08-26T14:46:34.490Z,36.44
2022-08-26T14:49:03.591Z,37.60
2022-08-26T14:51:32.524Z,37.40
2022-08-26T14:54:14.543Z,38.13
2022-08-26T14:56:49.046Z,37.97
2022-08-26T14:59:20.448Z,38.82
2022-08-26T15:01:47.471Z,36.53
2022-08-26T15:04:15.235Z,36.63
2022-08-26T15:06:42.175Z,36.62
2022-08-26T15:09:09.204Z,37.17
2022-08-26T15:11:36.455Z,35.06
2022-08-26T15:14:03.384Z,37.09
2022-08-26T15:16:30.404Z,35.92
2022-08-26T15:18:57.941Z,36.92
2022-08-26T15:21:26.186Z,38.00
2022-08-26T15:23:54.777Z,39.58
2022-08-26T15:26:22.366Z,36.40
2022-08-26T15:28:49.897Z,36.48
2022-08-26T15:31:17.817Z,37.64
2022-08-26T15:33:45.828Z,38.21
2022-08-26T15:36:12.623Z,37.36
2022-08-26T15:38:42.574Z,37.41
2022-08-26T15:41:10.384Z,37.71
2022-08-26T15:43:38.269Z,38.91
2022-08-26T15:46:11.195Z,38.10
2022-08-26T15:48:38.723Z,40.34
2022-08-26T15:51:06.914Z,38.87
2022-08-26T15:53:34.945Z,41.06
2022-08-26T15:56:02.273Z,39.75
2022-08-26T15:58:29.882Z,38.18
2022-08-26T16:00:57.572Z,40.58
2022-08-26T16:03:24.871Z,42.73
2022-08-26T16:05:52.044Z,46.68
2022-08-26T16:08:19.203Z,48.56
2022-08-26T16:10:50.278Z,47.70
2022-08-26T16:13:20.089Z,48.31
2022-08-26T16:15:48.447Z,48.78
2022-08-26T16:18:16.382Z,49.87
2022-08-26T16:21:06.573Z,50.19
2022-08-26T16:23:39.525Z,52.39
2022-08-26T16:26:14.433Z,52.51
2022-08-26T16:28:41.284Z,53.57
2022-08-26T16:31:11.038Z,53.27
2022-08-26T16:33:38.428Z,52.36
2022-08-26T16:36:06.066Z,54.06
2022-08-26T16:38:35.638Z,55.68
2022-08-26T16:41:02.562Z,57.06
2022-08-26T16:43:29.367Z,60.37
2022-08-26T16:45:56.597Z,62.13
2022-08-26T16:48:23.888Z,64.20
2022-08-26T16:50:51.659Z,65.38
2022-08-26T16:53:19.167Z,64.71
2022-08-26T16:55:47.526Z,66.53
2022-08-26T16:58:15.130Z,70.43
2022-08-26T17:00:42.529Z,73.28
2022-08-26T17:03:10.244Z,73.67
2022-08-26T17:05:37.583Z,75.82
2022-08-26T17:08:05.231Z,73.51
2022-08-26T17:10:32.998Z,74.52
2022-08-26T17:13:00.440Z,75.65
2022-08-26T17:15:27.398Z,75.80
2022-08-26T17:17:55.163Z,77.39
2022-08-26T17:20:23.814Z,79.85
2022-08-26T17:22:52.748Z,80.11
2022-08-26T17:25:26.404Z,81.89
2022-08-26T17:27:53.299Z,83.16
2022-08-26T17:30:21.666Z,83.52
2022-08-26T17:32:48.925Z,83.56
2022-08-26T17:35:17.022Z,84.79
2022-08-26T17:37:44.045Z,86.47
2022-08-26T17:40:15.804Z,85.11
2022-08-26T17:42:42.650Z,88.96
2022-08-26T17:45:11.143Z,91.44
2022-08-26T17:47:40.993Z,92.78
2022-08-26T17:50:11.025Z,93.46
2022-08-26T17:52:38.103Z,93.52
2022-08-26T17:55:06.937Z,91.78
2022-08-26T17:57:37.358Z,93.91
2022-08-26T18:00:13.195Z,95.56
2022-08-26T18:02:40.994Z,97.39
2022-08-26T18:05:11.874Z,99.59
2022-08-26T18:07:44.037Z,100.00
2022-08-26T18:10:13.490Z,100.00
2022-08-26T18:12:41.092Z,99.83
2022-08-26T18:15:09.522Z,100.00
2022-08-26T18:17:36.958Z,100.00
2022-08-26T18:20:04.086Z,100.00
2022-08-26T18:22:30.833Z,100.00
2022-08-26T18:24:58.880Z,100.00
2022-08-26T18:27:26.696Z,100.00
2022-08-26T18:29:53.494Z,100.00
2022-08-26T18:32:20.244Z,100.00
2022-08-26T18:34:47.163Z,100.00
2022-08-26T18:37:14.168Z,100.00
2022-08-26T18:39:41.833Z,100.00
2022-08-26T18:42:09.170Z,100.00
2022-08-26T18:44:36.013Z,100.00
2022-08-26T18:47:02.843Z,100.00
2022-08-26T18:49:29.682Z,100.00
2022-08-26T18:51:57.136Z,100.00
2022-08-26T18:54:24.061Z,100.00
2022-08-26T18:56:51.575Z,100.00
2022-08-26T18:59:18.723Z,100.00
2022-08-26T19:01:47.679Z,100.00
2022-08-26T19:04:18.644Z,100.00
2022-08-26T19:06:50.701Z,100.00
2022-08-26T19:09:20.952Z,100.00
2022-08-26T19:11:49.756Z,100.00
2022-08-26T19:14:23.202Z,100.00
2022-08-26T19:16:53.095Z,100.00
2022-08-26T19:19:24.301Z,100.00
2022-08-26T19:21:53.045Z,100.00
2022-08-26T19:24:20.993Z,100.00
2022-08-26T19:26:57.593Z,100.00
2022-08-26T19:29:30.377Z,100.00
2022-08-26T19:32:00.941Z,100.00
2022-08-26T19:34:28.556Z,100.00
2022-08-26T19:36:57.497Z,100.00
2022-08-26T19:39:27.191Z,100.00
2022-08-26T19:41:54.326Z,100.00
2022-08-26T19:44:42.648Z,100.00
2022-08-26T19:47:11.738Z,100.00
2022-08-26T19:49:39.457Z,100.00
2022-08-26T19:52:07.235Z,100.00
2022-08-26T19:54:36.024Z,100.00
2022-08-26T19:57:03.991Z,100.00
2022-08-26T19:59:33.776Z,100.00
2022-08-26T20:02:01.959Z,100.00
2022-08-26T20:04:31.857Z,100.00
2022-08-26T20:07:00.869Z,100.00
2022-08-26T20:09:33.257Z,100.00
2022-08-26T20:12:01.564Z,100.00
2022-08-26T20:14:30.256Z,100.00
2022-08-26T20:16:57.630Z,100.00
2022-08-26T20:19:44.505Z,100.00
2022-08-26T20:22:17.434Z,100.00
2022-08-26T20:24:45.906Z,100.00
2022-08-26T20:27:13.654Z,100.00
2022-08-26T20:29:41.097Z,100.00
2022-08-26T20:32:08.221Z,100.00
2022-08-26T20:34:36.384Z,100.00
2022-08-26T20:37:04.400Z,100.00
2022-08-26T20:39:31.867Z,100.00
2022-08-26T20:42:02.062Z,100.00
2022-08-26T20:44:29.675Z,100.00
2022-08-26T20:46:56.878Z,100.00
2022-08-26T20:49:23.874Z,100.00
2022-08-26T20:51:51.795Z,100.00
2022-08-26T20:54:23.934Z,100.00
2022-08-26T20:56:56.611Z,100.00
2022-08-26T20:59:24.948Z,100.00
2022-08-26T21:01:51.983Z,100.00
2022-08-26T21:04:23.005Z,100.00
2022-08-26T21:06:52.790Z,100.00
2022-08-26T21:09:22.314Z,100.00
2022-08-26T21:11:49.424Z,100.00
2022-08-26T21:14:17.367Z,100.00
2022-08-26T21:16:45.943Z,100.00
2022-08-26T21:19:17.705Z,100.00
2022-08-26T21:21:45.943Z,100.00
2022-08-26T21:24:13.597Z,100.00
2022-08-26T21:26:40.524Z,100.00
2022-08-26T21:29:10.061Z,100.00
2022-08-26T21:31:37.272Z,100.00
2022-08-26T21:34:05.785Z,100.00
2022-08-26T21:36:32.733Z,100.00
2022-08-26T21:39:00.381Z,100.00
2022-08-26T21:41:28.303Z,100.00
2022-08-26T21:43:59.353Z,100.00
2022-08-26T21:46:29.604Z,100.00
2022-08-26T21:48:59.392Z,100.00
2022-08-26T21:51:29.679Z,100.00
2022-08-26T21:53:57.944Z,100.00
2022-08-26T21:56:27.673Z,100.00
2022-08-26T21:58:56.377Z,100.00
2022-08-26T22:01:25.986Z,100.00
2022-08-26T22:03:52.860Z,100.00
2022-08-26T22:06:25.447Z,100.00
2022-08-26T22:08:53.224Z,100.00
2022-08-26T22:11:21.082Z,100.00
2022-08-26T22:13:49.506Z,100.00
2022-08-26T22:16:16.917Z,100.00
2022-08-26T22:18:45.033Z,100.00
2022-08-26T22:21:19.055Z,100.00
2022-08-26T22:23:47.102Z,100.00
2022-08-26T22:26:20.517Z,100.00
2022-08-26T22:28:55.637Z,100.00
2022-08-26T22:31:28.210Z,100.00
2022-08-26T22:34:06.723Z,100.00
2022-08-26T22:36:33.564Z,100.00
2022-08-26T22:39:01.149Z,100.00
2022-08-26T22:41:28.014Z,100.00
2022-08-26T22:43:54.778Z,100.00
2022-08-26T22:46:25.103Z,100.00
2022-08-26T22:48:53.962Z,100.00
2022-08-26T22:51:21.616Z,100.00
2022-08-26T22:53:48.508Z,100.00
2022-08-26T22:56:18.413Z,100.00
2022-08-26T22:58:45.756Z,100.00
2022-08-26T23:03:31.349Z,100.00
2022-08-26T23:05:58.508Z,100.00
2022-08-26T23:08:25.977Z,100.00
2022-08-26T23:10:52.724Z,100.00
2022-08-26T23:13:20.107Z,100.00
2022-08-26T23:15:47.304Z,100.00
2022-08-26T23:18:15.327Z,100.00
2022-08-26T23:20:42.545Z,100.00
2022-08-26T23:23:09.687Z,100.00
2022-08-26T23:25:36.504Z,100.00
2022-08-26T23:28:04.202Z,100.00
2022-08-26T23:30:33.261Z,100.00
2022-08-26T23:33:01.092Z,100.00
2022-08-26T23:35:28.832Z,100.00
2022-08-26T23:37:57.867Z,100.00
2022-08-26T23:40:33.081Z,100.00
2022-08-26T23:43:03.668Z,100.00
2022-08-26T23:45:32.065Z,100.00
2022-08-26T23:47:59.437Z,100.00
2022-08-26T23:50:49.225Z,100.00
2022-08-26T23:53:22.430Z,100.00
2022-08-26T23:55:51.639Z,100.00
2022-08-26T23:58:20.453Z,100.00
